createdAt,value
2022-08-20T00:02:15.411Z,10.18
2022-08-20T00:04:44.105Z,10.25
2022-08-20T00:07:13.676Z,10.68
2022-08-20T00:09:43.137Z,11.18
2022-08-20T00:12:15.919Z,10.38
2022-08-20T00:14:44.508Z,11.63
2022-08-20T00:17:12.862Z,9.40
2022-08-20T00:19:41.237Z,10.85
2022-08-20T00:22:09.716Z,10.05
2022-08-20T00:24:38.094Z,11.10
2022-08-20T00:27:06.470Z,10.93
2022-08-20T00:29:34.812Z,10.60
2022-08-20T00:32:03.504Z,9.35
2022-08-20T00:34:31.861Z,9.98
2022-08-20T00:37:00.447Z,10.80
2022-08-20T00:39:28.996Z,9.38
2022-08-20T00:41:57.483Z,11.13
2022-08-20T00:44:26.916Z,9.32
2022-08-20T00:46:55.484Z,10.27
2022-08-20T00:49:30.594Z,8.93
2022-08-20T00:52:09.928Z,8.05
2022-08-20T00:54:41.521Z,8.25
2022-08-20T00:57:22.434Z,8.23
2022-08-20T00:59:59.344Z,7.57
2022-08-20T01:02:30.170Z,6.70
2022-08-20T01:05:05.114Z,8.25
2022-08-20T01:07:34.952Z,8.23
2022-08-20T01:10:07.230Z,7.93
2022-08-20T01:12:37.602Z,6.90
2022-08-20T01:17:41.758Z,7.32
2022-08-20T01:20:15.068Z,7.45
2022-08-20T01:23:20.227Z,7.18
2022-08-20T01:26:17.877Z,7.50
2022-08-20T01:28:56.316Z,6.85
2022-08-20T01:31:31.939Z,6.35
2022-08-20T01:34:02.504Z,6.43
2022-08-20T01:39:06.731Z,6.78
2022-08-20T01:42:09.113Z,5.75
2022-08-20T01:44:39.674Z,5.95
2022-08-20T01:49:44.211Z,6.05
2022-08-20T01:52:30.926Z,6.07
2022-08-20T01:55:00.277Z,5.95
2022-08-20T01:57:29.822Z,5.30
2022-08-20T01:59:58.369Z,5.72
2022-08-20T02:02:27.792Z,6.15
2022-08-20T02:04:57.234Z,6.10
2022-08-20T02:07:27.020Z,5.72
2022-08-20T02:09:55.603Z,6.40
2022-08-20T02:12:24.066Z,6.20
2022-08-20T02:14:54.916Z,6.75
2022-08-20T02:17:26.038Z,6.50
2022-08-20T02:20:02.617Z,6.80
2022-08-20T02:22:49.265Z,6.90
2022-08-20T02:25:22.877Z,7.55
2022-08-20T02:27:53.269Z,6.25
2022-08-20T02:30:30.363Z,6.10
2022-08-20T02:33:00.134Z,6.07
2022-08-20T02:35:30.450Z,6.75
2022-08-20T02:38:00.390Z,7.45
2022-08-20T02:40:33.270Z,7.35
2022-08-20T02:43:02.956Z,6.90
2022-08-20T02:45:38.453Z,6.03
2022-08-20T02:48:07.120Z,7.18
2022-08-20T02:50:35.672Z,6.32
2022-08-20T02:53:04.100Z,5.85
2022-08-20T02:55:33.470Z,5.75
2022-08-20T02:58:01.900Z,5.68
2022-08-20T03:00:37.997Z,6.43
2022-08-20T03:03:10.375Z,5.68
2022-08-20T03:05:41.746Z,6.13
2022-08-20T03:08:13.048Z,4.75
2022-08-20T03:10:44.278Z,5.82
2022-08-20T03:13:14.237Z,5.63
2022-08-20T03:15:46.556Z,4.07
2022-08-20T03:18:16.176Z,4.93
2022-08-20T03:20:46.176Z,4.13
2022-08-20T03:23:21.889Z,4.45
2022-08-20T03:25:51.103Z,3.33
2022-08-20T03:28:20.349Z,4.07
2022-08-20T03:30:48.748Z,3.97
2022-08-20T03:33:17.736Z,3.72
2022-08-20T03:35:47.151Z,4.90
2022-08-20T03:38:17.836Z,4.10
2022-08-20T03:40:53.438Z,4.10
2022-08-20T03:43:21.719Z,3.65
2022-08-20T03:45:50.775Z,3.70
2022-08-20T03:48:21.710Z,3.83
2022-08-20T03:50:51.509Z,3.35
2022-08-20T03:53:21.083Z,3.78
2022-08-20T03:55:54.110Z,3.53
2022-08-20T03:58:34.757Z,2.90
2022-08-20T04:01:06.658Z,4.03
2022-08-20T04:03:38.482Z,2.90
2022-08-20T04:06:07.406Z,3.15
2022-08-20T04:08:35.798Z,3.55
2022-08-20T04:11:04.115Z,4.22
2022-08-20T04:13:37.991Z,3.35
2022-08-20T04:16:11.749Z,3.67
2022-08-20T04:19:01.669Z,3.33
2022-08-20T04:21:33.458Z,2.90
2022-08-20T04:24:05.262Z,3.20
2022-08-20T04:26:36.443Z,2.70
2022-08-20T04:29:05.168Z,2.67
2022-08-20T04:31:34.898Z,3.83
2022-08-20T04:34:08.040Z,3.00
2022-08-20T04:36:36.789Z,3.92
2022-08-20T04:39:05.417Z,3.38
2022-08-20T04:41:33.749Z,3.28
2022-08-20T04:44:02.336Z,2.78
2022-08-20T04:46:32.650Z,2.50
2022-08-20T04:49:03.419Z,3.00
2022-08-20T04:51:33.430Z,3.22
2022-08-20T04:56:38.651Z,3.17
2022-08-20T04:59:08.187Z,3.13
2022-08-20T05:01:36.728Z,2.75
2022-08-20T05:04:05.216Z,2.95
2022-08-20T05:06:34.092Z,2.95
2022-08-20T05:09:02.567Z,2.72
2022-08-20T05:11:35.254Z,2.58
2022-08-20T05:14:08.571Z,2.55
2022-08-20T05:16:39.571Z,2.92
2022-08-20T05:21:38.838Z,2.40
2022-08-20T05:24:07.903Z,2.60
2022-08-20T05:26:37.376Z,3.35
2022-08-20T05:29:06.892Z,2.80
2022-08-20T05:31:35.676Z,2.03
2022-08-20T05:34:10.000Z,3.47
2022-08-20T05:36:42.796Z,2.97
2022-08-20T05:39:13.395Z,2.85
2022-08-20T05:44:13.370Z,2.55
2022-08-20T05:46:45.295Z,3.00
2022-08-20T05:49:17.071Z,2.88
2022-08-20T05:51:46.750Z,2.60
2022-08-20T05:54:15.569Z,2.60
2022-08-20T05:56:43.891Z,2.83
2022-08-20T05:59:14.044Z,2.42
2022-08-20T06:01:43.387Z,2.17
2022-08-20T06:04:28.752Z,2.50
2022-08-20T06:07:03.167Z,2.65
2022-08-20T06:09:34.326Z,2.70
2022-08-20T06:12:07.837Z,2.60
2022-08-20T06:14:36.930Z,2.33
2022-08-20T06:17:08.650Z,2.78
2022-08-20T06:19:39.812Z,2.53
2022-08-20T06:22:18.803Z,2.35
2022-08-20T06:24:50.743Z,2.65
2022-08-20T06:27:20.871Z,3.15
2022-08-20T06:29:49.926Z,2.85
2022-08-20T06:32:31.854Z,2.55
2022-08-20T06:35:03.861Z,2.90
2022-08-20T06:37:36.600Z,2.70
2022-08-20T06:40:13.169Z,2.70
2022-08-20T06:42:47.832Z,2.25
2022-08-20T06:45:25.976Z,2.22
2022-08-20T06:47:58.488Z,1.67
2022-08-20T06:50:33.068Z,1.55
2022-08-20T06:53:01.487Z,1.90
2022-08-20T06:55:32.895Z,2.45
2022-08-20T06:58:22.250Z,1.80
2022-08-20T07:01:04.501Z,2.10
2022-08-20T07:03:42.065Z,1.27
2022-08-20T07:06:21.425Z,1.58
2022-08-20T07:08:49.812Z,1.92
2022-08-20T07:11:27.986Z,1.70
2022-08-20T07:13:59.173Z,1.40
2022-08-20T07:19:05.833Z,1.40
2022-08-20T07:21:34.902Z,1.40
2022-08-20T07:24:05.516Z,1.80
2022-08-20T07:29:03.417Z,1.40
2022-08-20T07:31:50.549Z,1.35
2022-08-20T07:34:19.651Z,1.20
2022-08-20T07:37:00.861Z,1.23
2022-08-20T07:39:35.888Z,1.20
2022-08-20T07:42:09.887Z,1.27
2022-08-20T07:44:39.107Z,1.30
2022-08-20T07:47:07.510Z,1.58
2022-08-20T07:49:40.188Z,1.45
2022-08-20T07:52:08.630Z,1.38
2022-08-20T07:54:40.813Z,1.00
2022-08-20T07:57:11.484Z,1.20
2022-08-20T07:59:40.712Z,1.60
2022-08-20T08:02:09.234Z,1.25
2022-08-20T08:04:39.518Z,1.60
2022-08-20T08:07:08.264Z,1.38
2022-08-20T08:09:37.275Z,1.45
2022-08-20T08:12:05.997Z,1.40
2022-08-20T08:14:36.373Z,2.20
2022-08-20T08:17:05.667Z,1.20
2022-08-20T08:19:39.248Z,1.15
2022-08-20T08:22:12.242Z,1.10
2022-08-20T08:24:42.080Z,0.93
2022-08-20T08:27:33.109Z,1.20
2022-08-20T08:30:03.063Z,1.05
2022-08-20T08:32:32.908Z,1.10
2022-08-20T08:35:07.527Z,1.50
2022-08-20T08:37:42.331Z,1.00
2022-08-20T08:40:13.099Z,1.15
2022-08-20T08:42:48.896Z,1.15
2022-08-20T08:45:19.958Z,1.23
2022-08-20T08:47:49.146Z,1.50
2022-08-20T08:50:52.865Z,1.23
2022-08-20T08:53:38.542Z,1.10
2022-08-20T08:56:10.039Z,1.52
2022-08-20T08:58:38.614Z,1.10
2022-08-20T09:01:55.020Z,1.27
2022-08-20T09:04:05.988Z,1.23
2022-08-20T09:06:35.459Z,1.05
2022-08-20T09:09:06.592Z,1.38
2022-08-20T09:11:53.107Z,1.42
2022-08-20T09:14:25.679Z,0.98
2022-08-20T09:16:54.298Z,1.55
2022-08-20T09:19:26.636Z,1.30
2022-08-20T09:21:56.126Z,1.67
2022-08-20T09:24:24.941Z,1.00
2022-08-20T09:26:53.343Z,1.52
2022-08-20T09:29:21.794Z,1.10
2022-08-20T09:31:50.170Z,1.40
2022-08-20T09:34:18.775Z,1.25
2022-08-20T09:36:47.247Z,1.08
2022-08-20T09:39:16.102Z,0.60
2022-08-20T09:41:47.598Z,0.93
2022-08-20T09:44:16.726Z,1.23
2022-08-20T09:46:51.123Z,1.10
2022-08-20T09:49:25.969Z,1.40
2022-08-20T09:51:56.261Z,1.33
2022-08-20T09:54:28.937Z,1.20
2022-08-20T09:56:59.153Z,1.48
2022-08-20T09:59:30.611Z,1.08
2022-08-20T10:01:59.150Z,1.33
2022-08-20T10:04:28.823Z,0.75
2022-08-20T10:06:57.350Z,1.20
2022-08-20T10:09:28.752Z,1.13
2022-08-20T10:11:57.483Z,1.63
2022-08-20T10:14:27.979Z,1.10
2022-08-20T10:16:59.231Z,1.50
2022-08-20T10:19:32.179Z,1.42
2022-08-20T10:22:01.249Z,1.23
2022-08-20T10:24:31.395Z,1.20
2022-08-20T10:29:30.459Z,1.27
2022-08-20T10:32:12.528Z,1.20
2022-08-20T10:34:43.806Z,1.33
2022-08-20T10:37:24.192Z,1.40
2022-08-20T10:39:56.099Z,1.52
2022-08-20T10:42:26.534Z,1.40
2022-08-20T10:47:33.106Z,1.30
2022-08-20T10:50:05.580Z,1.65
2022-08-20T10:52:35.027Z,1.45
2022-08-20T10:55:04.913Z,1.27
2022-08-20T10:57:34.047Z,1.45
2022-08-20T11:00:04.111Z,1.38
2022-08-20T11:02:33.616Z,1.30
2022-08-20T11:05:04.261Z,1.67
2022-08-20T11:07:50.531Z,1.90
2022-08-20T11:10:27.383Z,1.42
2022-08-20T11:15:24.264Z,1.23
2022-08-20T11:17:53.311Z,1.23
2022-08-20T11:20:26.349Z,1.40
2022-08-20T11:22:58.791Z,1.13
2022-08-20T11:25:28.005Z,1.98
2022-08-20T11:27:58.866Z,2.38
2022-08-20T11:30:30.650Z,1.35
2022-08-20T11:33:00.446Z,1.60
2022-08-20T11:35:49.380Z,1.45
2022-08-20T11:38:19.080Z,1.45
2022-08-20T11:40:47.711Z,1.95
2022-08-20T11:43:17.450Z,1.98
2022-08-20T11:45:55.532Z,2.25
2022-08-20T11:48:26.473Z,1.90
2022-08-20T11:50:55.286Z,1.95
2022-08-20T11:53:23.715Z,1.67
2022-08-20T11:55:55.366Z,2.00
2022-08-20T11:58:23.950Z,1.40
2022-08-20T12:00:53.890Z,1.50
2022-08-20T12:03:22.405Z,1.73
2022-08-20T12:05:51.042Z,1.33
2022-08-20T12:08:27.854Z,1.90
2022-08-20T12:10:59.845Z,1.73
2022-08-20T12:13:48.180Z,1.85
2022-08-20T12:16:21.036Z,1.52
2022-08-20T12:18:52.543Z,2.05
2022-08-20T12:21:23.016Z,1.83
2022-08-20T12:26:20.632Z,1.40
2022-08-20T12:28:49.136Z,1.92
2022-08-20T12:31:17.746Z,1.42
2022-08-20T12:33:50.335Z,1.88
2022-08-20T12:36:18.916Z,1.57
2022-08-20T12:38:47.480Z,1.20
2022-08-20T12:41:16.176Z,1.35
2022-08-20T12:43:44.631Z,1.48
2022-08-20T12:46:13.232Z,1.73
2022-08-20T12:48:42.187Z,1.50
2022-08-20T12:51:10.476Z,1.83
2022-08-20T12:53:38.779Z,1.77
2022-08-20T12:56:07.512Z,1.38
2022-08-20T12:58:36.693Z,1.88
2022-08-20T13:01:05.277Z,1.52
2022-08-20T13:03:43.141Z,1.90
2022-08-20T13:06:13.608Z,1.48
2022-08-20T13:08:42.015Z,1.42
2022-08-20T13:11:10.334Z,1.30
2022-08-20T13:13:39.927Z,1.83
2022-08-20T13:16:08.309Z,1.65
2022-08-20T13:18:38.862Z,1.98
2022-08-20T13:21:07.285Z,1.70
2022-08-20T13:23:35.705Z,1.75
2022-08-20T13:26:07.968Z,1.80
2022-08-20T13:28:36.459Z,1.85
2022-08-20T13:31:04.852Z,1.95
2022-08-20T13:33:34.832Z,1.58
2022-08-20T13:36:03.551Z,1.75
2022-08-20T13:38:37.112Z,1.60
2022-08-20T13:41:05.612Z,1.33
2022-08-20T13:43:34.172Z,1.60
2022-08-20T13:46:04.970Z,1.90
2022-08-20T13:48:34.022Z,1.60
2022-08-20T13:51:02.568Z,1.70
2022-08-20T13:53:35.685Z,1.75
2022-08-20T13:56:04.462Z,1.50
2022-08-20T13:58:34.613Z,1.48
2022-08-20T14:01:03.117Z,1.80
2022-08-20T14:03:33.115Z,1.55
2022-08-20T14:06:03.035Z,1.50
2022-08-20T14:08:31.671Z,1.85
2022-08-20T14:11:00.175Z,2.17
2022-08-20T14:13:28.862Z,1.80
2022-08-20T14:15:57.279Z,1.63
2022-08-20T14:18:26.487Z,1.98
2022-08-20T14:20:54.924Z,1.60
2022-08-20T14:23:23.312Z,1.48
2022-08-20T14:25:51.668Z,1.80
2022-08-20T14:28:23.961Z,1.33
2022-08-20T14:30:55.499Z,2.03
2022-08-20T14:33:24.316Z,2.65
2022-08-20T14:35:53.317Z,1.38
2022-08-20T14:38:21.713Z,1.67
2022-08-20T14:40:50.691Z,1.42
2022-08-20T14:43:20.330Z,3.45
2022-08-20T14:45:49.008Z,1.87
2022-08-20T14:48:17.306Z,1.88
2022-08-20T14:50:45.656Z,1.95
2022-08-20T14:53:14.044Z,1.95
2022-08-20T14:55:42.426Z,1.92
2022-08-20T14:58:13.036Z,1.92
2022-08-20T15:00:41.893Z,1.70
2022-08-20T15:03:13.489Z,1.93
2022-08-20T15:05:42.528Z,2.65
2022-08-20T15:08:12.757Z,1.77
2022-08-20T15:10:44.396Z,2.40
2022-08-20T15:13:14.684Z,1.80
2022-08-20T15:15:43.591Z,2.22
2022-08-20T15:18:12.275Z,1.50
2022-08-20T15:20:40.635Z,1.40
2022-08-20T15:23:08.932Z,1.90
2022-08-20T15:25:38.098Z,1.55
2022-08-20T15:28:09.651Z,2.08
2022-08-20T15:30:40.885Z,1.73
2022-08-20T15:33:10.256Z,1.90
2022-08-20T15:35:39.088Z,2.22
2022-08-20T15:38:07.477Z,1.85
2022-08-20T15:40:36.182Z,1.75
2022-08-20T15:43:05.841Z,2.15
2022-08-20T15:45:35.582Z,1.73
2022-08-20T15:48:17.044Z,1.58
2022-08-20T15:50:48.476Z,1.88
2022-08-20T15:53:24.831Z,1.85
2022-08-20T15:56:04.227Z,2.05
2022-08-20T16:01:36.256Z,3.17
2022-08-20T16:04:21.810Z,1.98
2022-08-20T16:06:54.407Z,1.65
2022-08-20T16:09:38.289Z,2.03
2022-08-20T16:12:23.788Z,2.25
2022-08-20T16:15:00.321Z,1.92
2022-08-20T16:17:37.408Z,1.85
2022-08-20T16:20:13.767Z,1.73
2022-08-20T16:22:46.134Z,1.65
2022-08-20T16:25:17.747Z,2.05
2022-08-20T16:28:10.035Z,1.83
2022-08-20T16:30:48.685Z,2.05
2022-08-20T16:33:31.898Z,2.08
2022-08-20T16:36:27.329Z,1.90
2022-08-20T16:39:04.678Z,2.22
2022-08-20T16:41:42.016Z,1.98
2022-08-20T16:44:23.314Z,2.17
2022-08-20T16:46:58.827Z,2.42
2022-08-20T16:49:29.953Z,1.75
2022-08-20T16:51:59.754Z,1.80
2022-08-20T16:54:31.093Z,1.80
2022-08-20T16:57:05.533Z,1.60
2022-08-20T16:59:34.447Z,2.00
2022-08-20T17:02:10.375Z,2.20
2022-08-20T17:04:53.273Z,2.00
2022-08-20T17:07:43.268Z,2.17
2022-08-20T17:10:35.995Z,2.13
2022-08-20T17:13:13.848Z,2.05
2022-08-20T17:15:44.117Z,1.73
2022-08-20T17:18:23.952Z,2.20
2022-08-20T17:20:54.363Z,2.55
2022-08-20T17:23:23.131Z,1.60
2022-08-20T17:26:00.794Z,1.80
2022-08-20T17:28:35.706Z,1.90
2022-08-20T17:31:04.330Z,2.15
2022-08-20T17:33:39.842Z,1.80
2022-08-20T17:36:21.227Z,1.63
2022-08-20T17:38:52.742Z,2.25
2022-08-20T17:41:26.771Z,2.20
2022-08-20T17:44:31.176Z,2.15
2022-08-20T17:47:11.947Z,1.75
2022-08-20T17:49:51.702Z,1.52
2022-08-20T17:52:39.757Z,2.28
2022-08-20T17:55:08.576Z,1.63
2022-08-20T17:57:40.477Z,2.72
2022-08-20T18:00:15.835Z,1.98
2022-08-20T18:02:44.900Z,1.58
2022-08-20T18:05:20.062Z,1.65
2022-08-20T18:08:03.607Z,2.03
2022-08-20T18:10:40.252Z,1.80
2022-08-20T18:13:19.678Z,1.95
2022-08-20T18:15:56.275Z,1.83
2022-08-20T18:18:30.909Z,1.85
2022-08-20T18:21:41.368Z,1.65
2022-08-20T18:24:17.847Z,1.73
2022-08-20T18:26:54.259Z,2.47
2022-08-20T18:29:28.273Z,1.80
2022-08-20T18:32:00.139Z,1.60
2022-08-20T18:34:28.932Z,1.92
2022-08-20T18:37:06.496Z,1.67
2022-08-20T18:39:45.548Z,2.00
2022-08-20T18:42:32.199Z,1.80
2022-08-20T18:45:01.234Z,1.70
2022-08-20T18:47:48.641Z,1.45
2022-08-20T18:50:26.932Z,1.85
2022-08-20T18:53:13.585Z,2.50
2022-08-20T18:55:44.885Z,2.33
2022-08-20T18:58:28.388Z,1.70
2022-08-20T19:00:58.160Z,1.90
2022-08-20T19:03:37.620Z,2.00
2022-08-20T19:06:37.617Z,2.50
2022-08-20T19:09:25.864Z,2.15
2022-08-20T19:12:09.713Z,2.17
2022-08-20T19:14:54.578Z,1.98
2022-08-20T19:17:33.208Z,2.58
2022-08-20T19:20:16.204Z,4.32
2022-08-20T19:22:47.039Z,2.30
2022-08-20T19:25:29.844Z,1.98
2022-08-20T19:28:07.629Z,2.08
2022-08-20T19:30:41.559Z,1.95
2022-08-20T19:33:10.842Z,1.80
2022-08-20T19:35:40.257Z,1.58
2022-08-20T19:38:16.217Z,2.13
2022-08-20T19:40:46.394Z,1.85
2022-08-20T19:43:18.410Z,2.40
2022-08-20T19:45:52.773Z,2.60
2022-08-20T19:48:35.572Z,2.03
2022-08-20T19:51:28.078Z,1.90
2022-08-20T19:53:57.942Z,1.83
2022-08-20T19:56:28.067Z,2.33
2022-08-20T19:59:09.700Z,2.05
2022-08-20T20:01:38.296Z,1.77
2022-08-20T20:04:15.058Z,2.67
2022-08-20T20:06:46.619Z,4.18
2022-08-20T20:09:28.593Z,2.88
2022-08-20T20:12:10.902Z,2.00
2022-08-20T20:14:54.132Z,2.25
2022-08-20T20:17:27.749Z,1.65
2022-08-20T20:20:00.221Z,2.00
2022-08-20T20:22:34.292Z,1.50
2022-08-20T20:25:21.953Z,2.35
2022-08-20T20:27:56.767Z,2.50
2022-08-20T20:30:36.037Z,3.03
2022-08-20T20:33:16.624Z,3.15
2022-08-20T20:38:28.463Z,2.00
2022-08-20T20:40:59.982Z,1.77
2022-08-20T20:43:41.340Z,1.70
2022-08-20T20:46:14.838Z,2.15
2022-08-20T20:48:46.997Z,2.00
2022-08-20T20:51:36.318Z,2.20
2022-08-20T20:54:21.661Z,1.95
2022-08-20T20:57:08.741Z,2.42
2022-08-20T20:59:37.555Z,3.17
2022-08-20T21:02:11.998Z,3.72
2022-08-20T21:04:44.719Z,2.63
2022-08-20T21:07:19.134Z,3.10
2022-08-20T21:09:55.697Z,2.95
2022-08-20T21:12:24.899Z,4.47
2022-08-20T21:14:53.701Z,5.53
2022-08-20T21:17:23.032Z,2.88
2022-08-20T21:19:52.338Z,1.80
2022-08-20T21:22:20.937Z,3.25
2022-08-20T21:24:51.456Z,3.70
2022-08-20T21:29:51.722Z,4.38
2022-08-20T21:32:23.572Z,4.15
2022-08-20T21:34:52.165Z,3.60
2022-08-20T21:37:20.692Z,3.80
2022-08-20T21:39:49.110Z,4.60
2022-08-20T21:42:28.477Z,4.65
2022-08-20T21:44:59.504Z,5.00
2022-08-20T21:47:28.160Z,5.53
2022-08-20T21:49:59.787Z,4.18
2022-08-20T21:52:28.189Z,4.15
2022-08-20T21:54:57.074Z,4.35
2022-08-20T21:57:34.278Z,4.07
2022-08-20T22:00:21.956Z,4.03
2022-08-20T22:02:51.441Z,4.15
2022-08-20T22:05:19.774Z,3.75
2022-08-20T22:07:48.142Z,4.13
2022-08-20T22:10:16.619Z,6.13
2022-08-20T22:12:45.567Z,6.68
2022-08-20T22:15:13.913Z,5.47
2022-08-20T22:17:42.204Z,4.60
2022-08-20T22:20:10.809Z,4.30
2022-08-20T22:22:39.283Z,4.35
2022-08-20T22:25:08.046Z,4.20
2022-08-20T22:27:41.100Z,4.43
2022-08-20T22:30:10.289Z,4.13
2022-08-20T22:32:52.107Z,4.30
2022-08-20T22:35:20.909Z,4.70
2022-08-20T22:37:49.496Z,4.20
2022-08-20T22:40:17.878Z,4.95
2022-08-20T22:42:46.396Z,4.82
2022-08-20T22:45:14.969Z,5.60
2022-08-20T22:47:44.183Z,5.40
2022-08-20T22:50:14.459Z,5.53
2022-08-20T22:52:43.613Z,6.30
2022-08-20T22:55:12.896Z,4.65
2022-08-20T22:57:41.665Z,4.75
2022-08-20T23:00:14.095Z,5.45
2022-08-20T23:02:44.415Z,4.60
2022-08-20T23:05:16.977Z,4.60
2022-08-20T23:07:45.554Z,4.82
2022-08-20T23:10:14.531Z,4.40
2022-08-20T23:12:44.321Z,7.05
2022-08-20T23:15:14.651Z,6.63
2022-08-20T23:17:43.442Z,5.07
2022-08-20T23:20:13.892Z,5.00
2022-08-20T23:22:42.618Z,5.57
2022-08-20T23:25:12.181Z,5.03
2022-08-20T23:27:49.600Z,5.05
2022-08-20T23:30:20.377Z,5.18
2022-08-20T23:32:49.280Z,4.85
2022-08-20T23:35:18.705Z,4.88
2022-08-20T23:37:51.883Z,5.30
2022-08-20T23:40:28.219Z,5.65
2022-08-20T23:42:59.062Z,5.32
2022-08-20T23:45:28.616Z,4.68
2022-08-20T23:47:57.017Z,4.68
2022-08-20T23:50:28.725Z,5.30
2022-08-20T23:52:58.116Z,6.30
2022-08-20T23:55:27.400Z,5.55
2022-08-20T23:57:56.556Z,5.22
